createdAt,value
2019-01-23T00:00:29.376Z,73.95
2019-01-23T00:02:58.084Z,89.80
2019-01-23T00:05:26.552Z,83.85
2019-01-23T00:07:55.008Z,88.05
2019-01-23T00:10:23.486Z,83.42
2019-01-23T00:12:51.949Z,82.97
2019-01-23T00:15:20.414Z,80.12
2019-01-23T00:17:48.865Z,79.05
2019-01-23T00:20:17.337Z,90.45
2019-01-23T00:22:45.788Z,78.45
2019-01-23T00:25:14.345Z,80.28
2019-01-23T00:27:42.804Z,76.50
2019-01-23T00:30:13.289Z,70.65
2019-01-23T00:32:41.753Z,85.57
2019-01-23T00:35:10.300Z,81.53
2019-01-23T00:37:38.768Z,75.83
2019-01-23T00:40:13.032Z,79.72
2019-01-23T00:42:41.557Z,79.22
2019-01-23T00:45:12.552Z,76.95
2019-01-23T00:47:41.016Z,85.77
2019-01-23T00:50:11.319Z,75.37
2019-01-23T00:52:39.775Z,76.17
2019-01-23T00:55:11.463Z,74.97
2019-01-23T00:57:39.947Z,83.97
2019-01-23T01:00:17.253Z,80.57
2019-01-23T01:02:45.721Z,81.70
2019-01-23T01:05:15.916Z,83.37
2019-01-23T01:07:44.461Z,79.03
2019-01-23T01:10:16.040Z,69.87
2019-01-23T01:12:44.587Z,70.80
2019-01-23T01:15:13.698Z,65.50
2019-01-23T01:17:42.317Z,78.97
2019-01-23T01:20:13.719Z,80.85
2019-01-23T01:22:42.375Z,78.70
2019-01-23T01:25:15.973Z,72.62
2019-01-23T01:27:44.453Z,77.95
2019-01-23T01:30:15.732Z,76.05
2019-01-23T01:32:44.200Z,80.10
2019-01-23T01:35:12.724Z,83.35
2019-01-23T01:37:41.175Z,74.42
2019-01-23T01:40:12.648Z,83.67
2019-01-23T01:42:41.068Z,72.10
2019-01-23T01:45:14.007Z,82.50
2019-01-23T01:47:42.613Z,82.17
2019-01-23T01:50:16.391Z,70.78
2019-01-23T01:52:44.853Z,82.97
2019-01-23T01:55:13.464Z,80.80
2019-01-23T01:57:41.913Z,81.53
2019-01-23T02:00:15.795Z,86.87
2019-01-23T02:02:44.254Z,79.40
2019-01-23T02:05:12.883Z,72.78
2019-01-23T02:07:41.418Z,82.62
2019-01-23T02:10:13.221Z,79.32
2019-01-23T02:12:41.757Z,61.90
2019-01-23T02:15:11.886Z,67.72
2019-01-23T02:17:40.405Z,86.57
2019-01-23T02:20:23.015Z,83.07
2019-01-23T02:22:52.025Z,81.00
2019-01-23T02:25:20.833Z,82.78
2019-01-23T02:27:49.837Z,85.22
2019-01-23T02:30:20.339Z,82.37
2019-01-23T02:32:48.785Z,90.77
2019-01-23T02:35:17.583Z,80.17
2019-01-23T02:37:46.040Z,82.55
2019-01-23T02:40:19.565Z,81.17
2019-01-23T02:42:48.015Z,94.37
2019-01-23T02:45:16.937Z,81.00
2019-01-23T02:47:45.648Z,98.47
2019-01-23T02:50:16.548Z,101.58
2019-01-23T02:52:44.989Z,92.10
2019-01-23T02:55:13.595Z,88.87
2019-01-23T02:57:42.047Z,82.08
2019-01-23T03:00:13.817Z,63.08
2019-01-23T03:02:42.311Z,91.05
2019-01-23T03:05:13.421Z,72.25
2019-01-23T03:07:41.873Z,89.20
2019-01-23T03:10:13.074Z,87.53
2019-01-23T03:12:41.526Z,83.17
2019-01-23T03:15:12.544Z,90.95
2019-01-23T03:17:40.998Z,87.37
2019-01-23T03:20:11.898Z,97.25
2019-01-23T03:22:40.380Z,82.70
2019-01-23T03:25:10.779Z,96.30
2019-01-23T03:27:39.210Z,83.42
2019-01-23T03:30:13.443Z,83.03
2019-01-23T03:32:41.898Z,83.17
2019-01-23T03:35:10.696Z,84.30
2019-01-23T03:37:39.142Z,89.75
2019-01-23T03:40:11.157Z,95.22
2019-01-23T03:42:39.609Z,99.62
2019-01-23T03:45:10.705Z,97.75
2019-01-23T03:47:39.257Z,96.15
2019-01-23T03:50:11.042Z,87.62
2019-01-23T03:52:39.512Z,89.70
2019-01-23T03:55:09.800Z,95.83
2019-01-23T03:57:38.271Z,94.92
2019-01-23T04:00:12.422Z,100.75
2019-01-23T04:02:41.134Z,96.82
2019-01-23T04:05:10.819Z,87.02
2019-01-23T04:07:39.272Z,85.53
2019-01-23T04:10:12.878Z,82.72
2019-01-23T04:12:41.345Z,92.45
2019-01-23T04:15:11.827Z,88.97
2019-01-23T04:17:40.462Z,97.92
2019-01-23T04:20:14.240Z,100.15
2019-01-23T04:22:42.888Z,80.03
2019-01-23T04:25:11.682Z,100.22
2019-01-23T04:27:40.143Z,96.92
2019-01-23T04:30:11.666Z,96.75
2019-01-23T04:32:40.133Z,97.70
2019-01-23T04:35:08.854Z,98.45
2019-01-23T04:37:37.326Z,88.82
2019-01-23T04:40:08.919Z,84.25
2019-01-23T04:42:37.372Z,93.50
2019-01-23T04:45:11.472Z,104.63
2019-01-23T04:47:39.925Z,97.47
2019-01-23T04:50:10.807Z,87.42
2019-01-23T04:52:56.408Z,93.75
2019-01-23T04:55:24.795Z,92.25
2019-01-23T04:57:53.265Z,107.65
2019-01-23T05:00:23.391Z,96.22
2019-01-23T05:02:51.861Z,108.90
2019-01-23T05:05:20.381Z,102.35
2019-01-23T05:07:48.956Z,86.42
2019-01-23T05:10:17.411Z,93.80
2019-01-23T05:12:45.879Z,93.90
2019-01-23T05:15:14.314Z,100.85
2019-01-23T05:17:42.775Z,91.55
2019-01-23T05:20:13.758Z,83.70
2019-01-23T05:22:42.231Z,101.50
2019-01-23T05:25:11.817Z,104.07
2019-01-23T05:27:40.606Z,98.17
2019-01-23T05:30:18.383Z,89.25
2019-01-23T05:32:46.884Z,99.92
2019-01-23T05:35:15.331Z,105.07
2019-01-23T05:37:43.836Z,100.90
2019-01-23T05:40:13.240Z,97.08
2019-01-23T05:42:41.713Z,101.55
2019-01-23T05:45:13.230Z,96.22
2019-01-23T05:47:41.745Z,88.40
2019-01-23T05:50:18.219Z,92.42
2019-01-23T05:52:48.278Z,98.20
2019-01-23T05:55:17.091Z,80.00
2019-01-23T05:57:45.683Z,84.42
2019-01-23T06:00:19.638Z,102.53
2019-01-23T06:02:48.228Z,102.85
2019-01-23T06:05:17.865Z,94.47
2019-01-23T06:07:46.304Z,95.50
2019-01-23T06:10:14.834Z,93.60
2019-01-23T06:12:43.279Z,82.97
2019-01-23T06:15:13.403Z,94.75
2019-01-23T06:17:41.858Z,100.12
2019-01-23T06:20:13.464Z,112.17
2019-01-23T06:22:41.912Z,109.75
2019-01-23T06:25:10.631Z,87.20
2019-01-23T06:27:39.086Z,109.95
2019-01-23T06:30:10.838Z,113.45
2019-01-23T06:32:39.268Z,117.67
2019-01-23T06:35:07.744Z,102.65
2019-01-23T06:37:36.226Z,101.90
2019-01-23T06:40:07.060Z,101.75
2019-01-23T06:42:35.532Z,113.28
2019-01-23T06:45:04.746Z,106.65
2019-01-23T06:47:33.220Z,113.17
2019-01-23T06:50:01.721Z,103.50
2019-01-23T06:52:30.230Z,114.03
2019-01-23T06:54:58.694Z,105.58
2019-01-23T06:57:27.152Z,118.40
2019-01-23T06:59:55.620Z,115.10
2019-01-23T07:02:24.086Z,119.33
2019-01-23T07:04:52.556Z,108.65
2019-01-23T07:07:21.032Z,111.85
2019-01-23T07:09:51.142Z,139.22
2019-01-23T07:12:19.617Z,118.47
2019-01-23T07:14:48.082Z,143.35
2019-01-23T07:17:16.534Z,111.12
2019-01-23T07:19:45.029Z,120.10
2019-01-23T07:22:13.496Z,138.07
2019-01-23T07:24:41.990Z,148.93
2019-01-23T07:27:10.465Z,129.93
2019-01-23T07:29:38.965Z,139.57
2019-01-23T07:32:07.419Z,127.10
2019-01-23T07:34:35.908Z,89.32
2019-01-23T07:37:04.529Z,152.02
2019-01-23T07:39:33.015Z,139.22
2019-01-23T07:42:01.473Z,145.10
2019-01-23T07:44:29.971Z,149.07
2019-01-23T07:46:58.636Z,140.95
2019-01-23T07:49:27.143Z,145.10
2019-01-23T07:51:55.617Z,154.80
2019-01-23T07:54:24.086Z,136.97
2019-01-23T07:56:52.534Z,162.85
2019-01-23T07:59:20.993Z,145.40
2019-01-23T08:01:49.485Z,145.43
2019-01-23T08:04:17.939Z,174.60
2019-01-23T08:06:46.396Z,144.65
2019-01-23T08:09:14.838Z,155.37
2019-01-23T08:11:43.331Z,140.75
2019-01-23T08:14:11.797Z,161.65
2019-01-23T08:16:40.282Z,158.52
2019-01-23T08:19:08.774Z,174.87
2019-01-23T08:21:37.246Z,179.10
2019-01-23T08:24:05.700Z,166.60
2019-01-23T08:26:34.191Z,180.78
2019-01-23T08:29:02.649Z,169.00
2019-01-23T08:31:31.144Z,178.20
2019-01-23T08:33:59.605Z,172.60
2019-01-23T08:36:28.073Z,152.07
2019-01-23T08:38:56.538Z,161.82
2019-01-23T08:41:25.045Z,178.90
2019-01-23T08:43:53.503Z,169.25
2019-01-23T08:46:21.992Z,164.00
2019-01-23T08:48:50.436Z,188.62
2019-01-23T08:51:18.900Z,191.82
2019-01-23T08:53:47.420Z,200.30
2019-01-23T08:56:15.891Z,183.27
2019-01-23T08:58:44.369Z,147.45
2019-01-23T09:01:12.824Z,185.82
2019-01-23T09:03:41.304Z,203.47
2019-01-23T09:06:09.762Z,195.47
2019-01-23T09:08:38.284Z,183.70
2019-01-23T09:11:06.723Z,205.25
2019-01-23T09:13:35.192Z,225.45
2019-01-23T09:16:03.636Z,173.45
2019-01-23T09:18:32.091Z,115.00
2019-01-23T09:21:00.556Z,201.80
2019-01-23T09:23:29.023Z,200.20
2019-01-23T09:25:57.483Z,207.12
2019-01-23T09:28:25.958Z,194.80
2019-01-23T09:30:57.463Z,205.90
2019-01-23T09:33:49.522Z,185.10
2019-01-23T09:36:41.767Z,204.23
2019-01-23T09:39:19.046Z,223.87
2019-01-23T09:41:50.542Z,209.65
2019-01-23T09:44:24.640Z,204.60
2019-01-23T09:47:16.880Z,221.72
2019-01-23T09:49:57.245Z,182.00
2019-01-23T09:52:37.629Z,209.65
2019-01-23T09:55:09.334Z,211.90
2019-01-23T09:57:39.609Z,208.68
2019-01-23T10:00:11.142Z,193.55
2019-01-23T10:02:39.586Z,222.22
2019-01-23T10:05:08.968Z,219.03
2019-01-23T10:07:37.416Z,206.07
2019-01-23T10:10:08.926Z,226.70
2019-01-23T10:12:37.390Z,199.23
2019-01-23T10:15:08.906Z,219.43
2019-01-23T10:17:37.529Z,189.45
2019-01-23T10:20:06.559Z,209.95
2019-01-23T10:22:35.026Z,213.95
2019-01-23T10:25:03.548Z,214.97
2019-01-23T10:27:32.026Z,219.65
2019-01-23T10:30:00.486Z,201.88
2019-01-23T10:32:28.955Z,166.45
2019-01-23T10:34:57.408Z,203.73
2019-01-23T10:37:25.884Z,175.87
2019-01-23T10:39:54.371Z,205.72
2019-01-23T10:42:22.879Z,205.55
2019-01-23T10:44:51.287Z,224.82
2019-01-23T10:47:19.760Z,216.23
2019-01-23T10:49:48.249Z,209.65
2019-01-23T10:52:16.753Z,208.65
2019-01-23T10:54:45.225Z,214.55
2019-01-23T10:57:13.723Z,211.85
2019-01-23T10:59:42.187Z,206.32
2019-01-23T11:02:11.026Z,210.35
2019-01-23T11:04:39.501Z,193.25
2019-01-23T11:07:07.955Z,183.82
2019-01-23T11:09:36.422Z,222.55
2019-01-23T11:12:05.079Z,184.43
2019-01-23T11:14:33.558Z,197.55
2019-01-23T11:17:02.026Z,198.28
2019-01-23T11:19:30.490Z,202.43
2019-01-23T11:21:59.152Z,198.57
2019-01-23T11:24:27.695Z,197.55
2019-01-23T11:26:56.146Z,162.65
2019-01-23T11:29:24.633Z,207.47
2019-01-23T11:31:53.083Z,199.70
2019-01-23T11:34:21.564Z,188.32
2019-01-23T11:36:50.023Z,192.70
2019-01-23T11:39:18.727Z,189.52
2019-01-23T11:41:47.192Z,179.30
2019-01-23T11:44:15.661Z,180.90
2019-01-23T11:46:44.136Z,173.62
2019-01-23T11:49:12.595Z,185.55
2019-01-23T11:51:41.231Z,167.82
2019-01-23T11:54:09.826Z,208.55
2019-01-23T11:56:38.315Z,169.95
2019-01-23T11:59:06.775Z,171.55
2019-01-23T12:01:35.235Z,157.50
2019-01-23T12:04:03.748Z,180.75
2019-01-23T12:06:32.212Z,187.97
2019-01-23T12:09:00.666Z,195.92
2019-01-23T12:11:29.134Z,192.30
2019-01-23T12:13:57.608Z,185.55
2019-01-23T12:16:26.092Z,183.65
2019-01-23T12:18:54.815Z,191.32
2019-01-23T12:21:23.285Z,197.53
2019-01-23T12:23:58.247Z,190.88
2019-01-23T12:26:23.448Z,184.50
2019-01-23T12:28:51.902Z,155.78
2019-01-23T12:31:34.653Z,173.07
2019-01-23T12:34:06.914Z,199.12
2019-01-23T12:36:35.388Z,150.32
2019-01-23T12:39:05.356Z,206.15
2019-01-23T12:41:33.814Z,201.98
2019-01-23T12:44:02.439Z,196.68
2019-01-23T12:46:30.899Z,183.82
2019-01-23T12:48:59.377Z,140.95
2019-01-23T12:51:27.838Z,179.10
2019-01-23T12:53:56.314Z,180.20
2019-01-23T12:56:24.786Z,176.10
2019-01-23T12:58:53.330Z,163.05
2019-01-23T13:01:21.773Z,164.40
2019-01-23T13:03:50.266Z,181.60
2019-01-23T13:06:21.716Z,177.27
2019-01-23T13:08:50.186Z,183.87
2019-01-23T13:11:18.684Z,178.25
2019-01-23T13:13:47.357Z,166.00
2019-01-23T13:16:15.812Z,171.28
2019-01-23T13:18:44.320Z,174.25
2019-01-23T13:21:12.775Z,179.97
2019-01-23T13:23:41.246Z,193.52
2019-01-23T13:26:09.683Z,161.70
2019-01-23T13:28:38.152Z,166.60
2019-01-23T13:31:06.606Z,161.55
2019-01-23T13:33:35.073Z,178.50
2019-01-23T13:36:05.534Z,149.90
2019-01-23T13:38:33.973Z,177.90
2019-01-23T13:41:02.485Z,162.00
2019-01-23T13:43:31.164Z,142.45
2019-01-23T13:45:59.717Z,160.35
2019-01-23T13:48:28.212Z,168.57
2019-01-23T13:50:56.669Z,150.93
2019-01-23T13:53:25.141Z,156.72
2019-01-23T13:55:53.633Z,144.43
2019-01-23T13:58:22.102Z,132.93
2019-01-23T14:00:50.557Z,128.93
2019-01-23T14:03:19.021Z,135.40
2019-01-23T14:05:47.495Z,123.62
2019-01-23T14:08:15.970Z,137.55
2019-01-23T14:10:44.423Z,122.85
2019-01-23T14:13:12.993Z,147.00
2019-01-23T14:15:41.529Z,119.50
2019-01-23T14:18:10.116Z,139.45
2019-01-23T14:20:38.585Z,135.05
2019-01-23T14:23:07.040Z,140.70
2019-01-23T14:25:35.893Z,116.50
2019-01-23T14:28:05.304Z,131.20
2019-01-23T14:30:36.303Z,128.53
2019-01-23T14:33:04.824Z,135.20
2019-01-23T14:35:34.140Z,130.60
2019-01-23T14:38:02.614Z,123.18
2019-01-23T14:40:31.086Z,135.15
2019-01-23T14:42:59.540Z,124.78
2019-01-23T14:45:28.199Z,115.37
2019-01-23T14:47:56.665Z,114.28
2019-01-23T14:50:25.221Z,102.00
2019-01-23T14:52:53.761Z,119.87
2019-01-23T14:55:22.365Z,106.58
2019-01-23T14:57:50.914Z,101.65
2019-01-23T15:00:32.807Z,105.30
2019-01-23T15:03:01.299Z,101.95
2019-01-23T15:05:29.748Z,112.03
2019-01-23T15:07:58.197Z,86.00
2019-01-23T15:10:31.578Z,91.67
2019-01-23T15:13:00.359Z,89.20
2019-01-23T15:15:29.071Z,89.95
2019-01-23T15:17:57.520Z,92.02
2019-01-23T15:20:34.934Z,82.67
2019-01-23T15:23:03.394Z,84.42
2019-01-23T15:25:31.862Z,83.27
2019-01-23T15:28:00.327Z,83.87
2019-01-23T15:30:28.818Z,72.85
2019-01-23T15:32:57.279Z,78.25
2019-01-23T15:35:25.733Z,71.53
2019-01-23T15:37:54.239Z,75.57
2019-01-23T15:40:34.172Z,67.27
2019-01-23T15:43:02.617Z,69.42
2019-01-23T15:45:31.079Z,64.85
2019-01-23T15:47:59.548Z,71.77
2019-01-23T15:50:28.572Z,66.60
2019-01-23T15:52:57.033Z,61.92
2019-01-23T15:55:26.124Z,64.30
2019-01-23T15:57:54.670Z,49.00
2019-01-23T16:00:28.356Z,54.50
2019-01-23T16:02:56.937Z,73.33
2019-01-23T16:05:25.545Z,58.73
2019-01-23T16:07:54.008Z,70.47
2019-01-23T16:10:25.268Z,58.80
2019-01-23T16:12:53.815Z,68.07
2019-01-23T16:15:24.505Z,57.70
2019-01-23T16:17:53.312Z,56.33
2019-01-23T16:20:25.309Z,60.28
2019-01-23T16:22:54.020Z,55.60
2019-01-23T16:25:22.531Z,54.40
2019-01-23T16:27:51.023Z,55.50
2019-01-23T16:30:27.703Z,52.38
2019-01-23T16:32:56.339Z,50.52
2019-01-23T16:35:25.126Z,47.65
2019-01-23T16:37:53.599Z,48.95
2019-01-23T16:40:22.073Z,65.28
2019-01-23T16:42:50.601Z,52.70
2019-01-23T16:45:20.388Z,44.03
2019-01-23T16:47:49.188Z,51.58
2019-01-23T16:50:23.410Z,51.92
2019-01-23T16:52:52.245Z,49.90
2019-01-23T16:55:20.743Z,46.85
2019-01-23T16:57:49.858Z,48.10
2019-01-23T17:00:26.610Z,48.13
2019-01-23T17:02:55.222Z,37.45
2019-01-23T17:05:26.496Z,46.42
2019-01-23T17:07:55.819Z,44.23
2019-01-23T17:10:27.035Z,37.90
2019-01-23T17:12:55.616Z,45.05
2019-01-23T17:15:24.252Z,48.70
2019-01-23T17:17:53.009Z,50.20
2019-01-23T17:20:33.259Z,44.38
2019-01-23T17:23:01.730Z,51.28
2019-01-23T17:25:30.303Z,55.45
2019-01-23T17:27:58.948Z,44.45
2019-01-23T17:30:27.410Z,37.73
2019-01-23T17:32:55.871Z,45.98
2019-01-23T17:35:24.365Z,43.60
2019-01-23T17:37:52.919Z,46.55
2019-01-23T17:40:25.204Z,47.85
2019-01-23T17:42:53.637Z,47.20
2019-01-23T17:45:25.175Z,39.48
2019-01-23T17:47:53.901Z,45.38
2019-01-23T17:50:23.865Z,41.77
2019-01-23T17:52:52.704Z,53.25
2019-01-23T17:55:24.120Z,49.18
2019-01-23T17:57:53.074Z,53.08
2019-01-23T18:00:26.098Z,49.90
2019-01-23T18:02:54.887Z,47.78
2019-01-23T18:05:23.984Z,47.38
2019-01-23T18:07:52.513Z,45.92
2019-01-23T18:10:21.066Z,41.73
2019-01-23T18:12:49.603Z,41.75
2019-01-23T18:15:33.165Z,51.42
2019-01-23T18:18:01.615Z,51.02
2019-01-23T18:20:30.551Z,55.43
2019-01-23T18:22:59.202Z,53.30
2019-01-23T18:25:28.134Z,54.90
2019-01-23T18:27:56.600Z,44.95
2019-01-23T18:30:43.189Z,42.17
2019-01-23T18:33:14.697Z,50.92
2019-01-23T18:36:02.577Z,53.10
2019-01-23T18:38:34.127Z,44.10
2019-01-23T18:41:14.893Z,49.27
2019-01-23T18:44:10.148Z,48.02
2019-01-23T18:46:45.024Z,43.73
2019-01-23T18:49:22.029Z,53.75
2019-01-23T18:51:53.557Z,50.25
2019-01-23T18:54:22.029Z,47.93
2019-01-23T18:56:50.585Z,55.52
2019-01-23T18:59:19.068Z,44.77
2019-01-23T19:01:47.581Z,54.40
2019-01-23T19:04:16.061Z,56.20
2019-01-23T19:06:44.555Z,43.58
2019-01-23T19:09:13.656Z,57.08
2019-01-23T19:11:42.164Z,48.63
2019-01-23T19:14:10.654Z,43.78
2019-01-23T19:16:41.044Z,57.17
2019-01-23T19:19:10.940Z,55.45
2019-01-23T19:21:39.429Z,44.70
2019-01-23T19:24:07.913Z,46.45
2019-01-23T19:26:36.416Z,54.03
2019-01-23T19:29:06.140Z,45.60
2019-01-23T19:31:34.631Z,44.13
2019-01-23T19:34:03.136Z,52.38
2019-01-23T19:36:31.643Z,53.33
2019-01-23T19:39:00.131Z,48.00
2019-01-23T19:41:28.842Z,51.92
2019-01-23T19:43:57.421Z,57.93
2019-01-23T19:46:26.080Z,57.08
2019-01-23T19:48:54.877Z,49.55
2019-01-23T19:51:23.357Z,41.60
2019-01-23T19:53:51.708Z,50.85
2019-01-23T19:56:20.516Z,55.40
2019-01-23T19:58:49.016Z,53.55
2019-01-23T20:01:17.827Z,49.40
2019-01-23T20:03:47.356Z,49.63
2019-01-23T20:06:15.914Z,69.40
2019-01-23T20:08:44.407Z,48.58
2019-01-23T20:11:12.915Z,58.95
2019-01-23T20:13:41.756Z,56.05
2019-01-23T20:16:10.336Z,56.60
2019-01-23T20:18:38.827Z,55.25
2019-01-23T20:21:07.361Z,56.05
2019-01-23T20:23:35.832Z,46.50
2019-01-23T20:26:04.600Z,52.35
2019-01-23T20:28:33.206Z,52.45
2019-01-23T20:31:01.731Z,52.95
2019-01-23T20:33:30.317Z,46.08
2019-01-23T20:35:58.800Z,59.80
2019-01-23T20:38:27.276Z,52.67
2019-01-23T20:40:55.788Z,46.40
2019-01-23T20:43:24.304Z,56.83
2019-01-23T20:45:53.108Z,55.15
2019-01-23T20:48:21.610Z,49.67
2019-01-23T20:50:50.100Z,46.00
2019-01-23T20:53:18.598Z,51.68
2019-01-23T20:55:47.084Z,47.58
2019-01-23T20:58:15.932Z,55.48
2019-01-23T21:00:45.086Z,53.23
2019-01-23T21:03:13.592Z,56.80
2019-01-23T21:05:42.102Z,55.73
2019-01-23T21:08:10.636Z,50.40
2019-01-23T21:10:39.168Z,47.85
2019-01-23T21:13:07.639Z,41.77
2019-01-23T21:15:36.151Z,46.80
2019-01-23T21:18:05.966Z,52.48
2019-01-23T21:20:36.029Z,50.67
2019-01-23T21:23:06.015Z,44.15
2019-01-23T21:25:34.586Z,49.88
2019-01-23T21:28:03.077Z,49.45
2019-01-23T21:30:31.574Z,54.35
2019-01-23T21:33:00.129Z,55.70
2019-01-23T21:35:28.650Z,47.13
2019-01-23T21:37:57.183Z,49.95
2019-01-23T21:40:28.404Z,51.35
2019-01-23T21:42:56.903Z,49.88
2019-01-23T21:45:25.487Z,54.30
2019-01-23T21:47:54.867Z,49.13
2019-01-23T21:50:25.099Z,52.73
2019-01-23T21:52:53.553Z,44.70
2019-01-23T21:55:24.280Z,50.20
2019-01-23T21:57:53.219Z,48.20
2019-01-23T22:00:27.306Z,46.53
2019-01-23T22:02:57.616Z,46.98
2019-01-23T22:05:26.120Z,53.05
2019-01-23T22:07:54.590Z,50.40
2019-01-23T22:10:23.063Z,44.00
2019-01-23T22:12:51.527Z,49.67
2019-01-23T22:15:22.926Z,54.30
2019-01-23T22:17:51.448Z,46.50
2019-01-23T22:20:21.563Z,47.03
2019-01-23T22:22:50.119Z,53.33
2019-01-23T22:25:20.489Z,48.45
2019-01-23T22:27:49.028Z,46.92
2019-01-23T22:30:20.147Z,49.20
2019-01-23T22:32:48.702Z,44.38
2019-01-23T22:35:17.514Z,53.78
2019-01-23T22:37:45.991Z,49.27
2019-01-23T22:40:19.135Z,56.25
2019-01-23T22:42:47.745Z,42.40
2019-01-23T22:45:18.354Z,53.15
2019-01-23T22:47:47.007Z,44.40
2019-01-23T22:50:20.227Z,45.67
2019-01-23T22:52:49.142Z,44.88
2019-01-23T22:55:17.929Z,45.98
2019-01-23T22:57:46.583Z,50.43
2019-01-23T23:00:23.617Z,46.65
2019-01-23T23:02:52.238Z,41.45
2019-01-23T23:05:20.775Z,49.65
2019-01-23T23:07:49.222Z,47.80
2019-01-23T23:10:17.923Z,46.02
2019-01-23T23:12:46.371Z,48.40
2019-01-23T23:15:15.487Z,57.45
2019-01-23T23:17:43.941Z,50.88
2019-01-23T23:20:13.558Z,46.15
2019-01-23T23:22:42.070Z,49.95
2019-01-23T23:25:11.573Z,47.78
2019-01-23T23:27:40.019Z,48.35
2019-01-23T23:30:11.553Z,57.08
2019-01-23T23:32:40.025Z,56.10
2019-01-23T23:35:08.808Z,49.98
2019-01-23T23:37:37.360Z,50.95
2019-01-23T23:40:11.757Z,45.60
2019-01-23T23:42:40.231Z,53.95
2019-01-23T23:45:14.802Z,50.12
2019-01-23T23:47:43.444Z,46.98
2019-01-23T23:50:13.532Z,46.80
2019-01-23T23:52:41.987Z,51.05
2019-01-23T23:55:15.020Z,55.38
2019-01-23T23:57:43.553Z,54.18
